Time;durP1;ratioP1;P1;durP2;ratioP2;P2;SDS_P1;SDS_P2;PMS_P1;PMS_P2;Temp;Humidity;BMP_temperature;BMP_pressure;BME280_temperature;BME280_humidity;BME280_pressure;Samples;Min_cycle;Max_cycle;Signal;HPM_P1;HPM_P2
2023/11/28 00:00:12;;;;;;;10.20;6.70;;;;;;;-6.12;69.64;98025.84;107236;1260;60540;-37
2023/11/28 00:02:41;;;;;;;10.50;6.20;;;;;;;-6.11;69.64;98032.60;107311;1257;60495;-38
2023/11/28 00:05:09;;;;;;;12.10;7.20;;;;;;;-6.12;69.44;98034.66;107208;1261;73843;-37
2023/11/28 00:07:37;;;;;;;10.90;6.50;;;;;;;-6.12;69.56;98039.14;107242;1256;67949;-37
2023/11/28 00:10:05;;;;;;;10.00;5.80;;;;;;;-6.13;69.38;98042.05;107215;1261;72737;-37
2023/11/28 00:12:33;;;;;;;13.90;7.30;;;;;;;-6.16;69.42;98044.52;106489;1257;1003026;-37
2023/11/28 00:15:01;;;;;;;11.10;6.70;;;;;;;-6.18;69.27;98044.48;107238;1256;59761;-37
2023/11/28 00:17:28;;;;;;;10.80;6.70;;;;;;;-6.12;69.09;98051.45;107196;1260;72652;-36
2023/11/28 00:19:56;;;;;;;10.90;6.30;;;;;;;-6.05;69.14;98053.77;107054;1257;66287;-37
2023/11/28 00:22:23;;;;;;;10.60;6.80;;;;;;;-6.05;68.74;98054.88;107098;1261;72521;-37
2023/11/28 00:24:51;;;;;;;10.80;6.80;;;;;;;-6.08;68.72;98054.13;107066;1257;60205;-37
2023/11/28 00:27:19;;;;;;;12.30;7.00;;;;;;;-6.09;68.96;98057.98;106341;1256;1002932;-37
2023/11/28 00:29:46;;;;;;;10.40;6.50;;;;;;;-6.09;68.82;98063.48;107084;1256;72597;-37
2023/11/28 00:32:14;;;;;;;10.70;6.60;;;;;;;-6.09;68.91;98063.52;106985;1263;67733;-37
2023/11/28 00:34:42;;;;;;;9.90;6.50;;;;;;;-6.10;68.73;98067.56;107173;1256;71743;-36
2023/11/28 00:37:10;;;;;;;10.90;5.70;;;;;;;-6.04;68.46;98075.23;107211;1258;60539;-36
2023/11/28 00:39:39;;;;;;;9.40;5.80;;;;;;;-5.95;68.30;98072.52;107243;1257;60523;-37
2023/11/28 00:42:07;;;;;;;10.50;6.20;;;;;;;-5.91;68.15;98077.56;107259;1261;73889;-36
2023/11/28 00:44:34;;;;;;;10.10;6.00;;;;;;;-5.91;67.98;98077.12;107099;1263;67921;-36
2023/11/28 00:47:03;;;;;;;10.00;6.10;;;;;;;-5.91;67.94;98074.59;107119;1257;72655;-37
2023/11/28 00:49:30;;;;;;;9.10;6.10;;;;;;;-5.88;67.65;98077.35;106437;1262;1003002;-37
2023/11/28 00:51:58;;;;;;;9.90;5.70;;;;;;;-5.88;67.72;98082.05;107115;1261;60273;-37
2023/11/28 00:54:25;;;;;;;8.60;5.60;;;;;;;-5.87;67.52;98086.01;107032;1257;73366;-36
2023/11/28 00:56:54;;;;;;;9.50;5.70;;;;;;;-5.88;67.43;98090.13;107263;1262;66458;-37
2023/11/28 00:59:21;;;;;;;7.80;5.50;;;;;;;-5.88;67.57;98092.77;106467;1260;1003370;-37
2023/11/28 01:01:49;;;;;;;8.50;6.10;;;;;;;-5.83;67.15;98091.08;106982;1263;60456;-37
2023/11/28 01:04:17;;;;;;;9.60;6.20;;;;;;;-5.74;66.94;98088.85;106991;1256;60394;-37
2023/11/28 01:06:44;;;;;;;8.60;5.70;;;;;;;-5.72;66.71;98091.54;107191;1258;73854;-37
2023/11/28 01:09:14;;;;;;;8.50;5.30;;;;;;;-5.72;66.72;98095.08;107029;1263;66260;-37
2023/11/28 01:11:42;;;;;;;10.40;5.20;;;;;;;-5.73;66.54;98094.18;106375;1258;1002866;-36
2023/11/28 01:14:10;;;;;;;9.30;5.50;;;;;;;-5.75;66.43;98099.41;107163;1262;60448;-36
2023/11/28 01:16:38;;;;;;;8.80;5.40;;;;;;;-5.74;66.25;98105.33;107223;1262;60483;-37
2023/11/28 01:19:05;;;;;;;8.20;5.20;;;;;;;-5.73;66.19;98103.63;107270;1257;73841;-36
2023/11/28 01:21:33;;;;;;;8.50;5.50;;;;;;;-5.72;65.97;98104.92;107208;1258;66474;-37
2023/11/28 01:24:00;;;;;;;7.70;5.20;;;;;;;-5.69;65.75;98102.67;107145;1257;73196;-36
2023/11/28 01:26:28;;;;;;;9.30;5.00;;;;;;;-5.61;65.52;98106.36;106366;1260;1003508;-36
2023/11/28 01:28:55;;;;;;;7.10;4.70;;;;;;;-5.49;65.15;98103.52;107217;1256;60304;-37
2023/11/28 01:31:27;;;;;;;7.80;4.70;;;;;;;-5.47;64.96;98105.11;107268;1260;73969;-36
2023/11/28 01:33:56;;;;;;;10.00;4.70;;;;;;;-5.46;64.98;98103.11;107178;1261;68084;-36
2023/11/28 01:36:23;;;;;;;7.00;4.80;;;;;;;-5.45;64.80;98100.08;107210;1262;71451;-36
2023/11/28 01:38:51;;;;;;;8.20;5.00;;;;;;;-5.45;64.88;98105.30;107225;1257;60209;-37
2023/11/28 01:41:18;;;;;;;7.70;5.30;;;;;;;-5.45;65.10;98109.68;107083;1257;60415;-36
2023/11/28 01:43:45;;;;;;;10.10;6.00;;;;;;;-5.46;65.43;98101.08;106330;1257;1016319;-36
2023/11/28 01:46:13;;;;;;;9.30;5.80;;;;;;;-5.47;65.74;98105.33;107255;1262;67746;-36
2023/11/28 01:48:41;;;;;;;9.80;5.90;;;;;;;-5.47;65.75;98103.49;107063;1262;72722;-37
2023/11/28 01:51:08;;;;;;;8.30;5.70;;;;;;;-5.46;66.08;98107.59;106923;1258;60403;-37
2023/11/28 01:53:36;;;;;;;11.00;6.50;;;;;;;-5.37;66.35;98107.35;107106;1262;60427;-36
2023/11/28 01:56:04;;;;;;;9.10;6.40;;;;;;;-5.29;66.61;98102.70;107010;1262;72604;-36
2023/11/28 01:58:32;;;;;;;11.20;7.20;;;;;;;-5.28;66.86;98103.32;107139;1263;67685;-37
2023/11/28 02:01:00;;;;;;;11.30;6.80;;;;;;;-5.29;66.99;98102.17;107290;1260;72705;-37
2023/11/28 02:03:28;;;;;;;12.40;7.00;;;;;;;-5.29;67.00;98100.32;107155;1262;60412;-37
2023/11/28 02:05:57;;;;;;;11.20;7.40;;;;;;;-5.29;67.29;98096.52;107022;1261;59348;-37
2023/11/28 02:08:26;;;;;;;11.90;7.10;;;;;;;-5.31;67.65;98100.96;106428;1262;1003046;-36
2023/11/28 02:10:53;;;;;;;11.60;6.80;;;;;;;-5.33;67.77;98095.73;107179;1263;66795;-37
2023/11/28 02:13:21;;;;;;;10.70;7.50;;;;;;;-5.34;68.00;98097.75;107138;1262;72683;-37
2023/11/28 02:15:49;;;;;;;12.20;7.50;;;;;;;-5.28;68.27;98103.15;107483;1253;61664;-37
2023/11/28 02:18:16;;;;;;;15.40;8.00;;;;;;;-5.23;68.77;98111.13;107444;1254;60739;-37
2023/11/28 02:20:44;;;;;;;14.00;7.90;;;;;;;-5.24;69.03;98113.08;106894;1252;1003626;-36
2023/11/28 02:23:12;;;;;;;11.70;7.70;;;;;;;-5.23;69.17;98112.86;106876;1254;1003112;-37
2023/11/28 02:25:47;;;;;;;12.40;7.40;;;;;;;-5.21;69.33;98119.11;106885;1254;1002746;-37
2023/11/28 02:28:23;;;;;;;10.00;7.10;;;;;;;-5.19;69.78;98118.14;107675;1254;59558;-36
2023/11/28 02:30:52;;;;;;;14.00;7.50;;;;;;;-5.18;69.58;98119.76;106985;1254;1003352;-37
2023/11/28 02:33:21;;;;;;;13.90;8.90;;;;;;;-5.12;69.78;98124.36;107641;1254;73827;-37
2023/11/28 02:35:49;;;;;;;11.30;7.70;;;;;;;-5.00;69.59;98126.88;107384;1259;67687;-37
2023/11/28 02:38:16;;;;;;;13.20;8.00;;;;;;;-4.94;69.66;98123.60;107551;1254;72676;-36
2023/11/28 02:40:44;;;;;;;13.30;8.70;;;;;;;-4.93;69.72;98126.02;106795;1255;1003405;-37
2023/11/28 02:43:12;;;;;;;13.00;8.80;;;;;;;-4.92;69.81;98123.19;106877;1254;1003661;-36
2023/11/28 02:45:43;;;;;;;12.40;8.00;;;;;;;-4.92;69.98;98127.54;107569;1253;72860;-37
2023/11/28 02:48:11;;;;;;;14.40;8.90;;;;;;;-4.95;69.80;98129.91;107547;1254;66331;-36
2023/11/28 02:50:38;;;;;;;13.40;8.40;;;;;;;-4.95;69.99;98130.23;107401;1256;72711;-36
2023/11/28 02:53:06;;;;;;;14.70;7.90;;;;;;;-4.87;70.09;98130.11;107576;1257;61024;-37
2023/11/28 02:55:34;;;;;;;11.10;7.00;;;;;;;-4.76;70.06;98133.59;107617;1257;60498;-37
2023/11/28 02:58:01;;;;;;;14.10;8.70;;;;;;;-4.74;70.03;98135.41;107651;1254;73855;-37
2023/11/28 03:00:29;;;;;;;14.00;8.40;;;;;;;-4.72;70.23;98136.79;107552;1252;66118;-37
2023/11/28 03:02:57;;;;;;;13.10;8.70;;;;;;;-4.69;70.38;98139.16;107572;1254;71440;-37
2023/11/28 03:05:25;;;;;;;14.40;8.80;;;;;;;-4.65;70.58;98134.30;107693;1254;60417;-37
2023/11/28 03:07:53;;;;;;;14.40;9.80;;;;;;;-4.60;70.59;98138.96;107524;1251;60509;-37
2023/11/28 03:10:20;;;;;;;15.30;9.30;;;;;;;-4.55;70.73;98145.71;107527;1258;74017;-37
2023/11/28 03:12:49;;;;;;;14.40;8.70;;;;;;;-4.45;70.44;98145.01;107628;1254;66378;-37
2023/11/28 03:15:16;;;;;;;13.40;8.40;;;;;;;-4.31;70.15;98147.23;107644;1253;71387;-37
2023/11/28 03:17:45;;;;;;;14.20;9.40;;;;;;;-4.24;70.18;98150.29;107602;1253;60501;-37
2023/11/28 03:20:13;;;;;;;16.10;9.20;;;;;;;-4.22;70.00;98146.02;107605;1254;60598;-36
2023/11/28 03:22:40;;;;;;;13.10;9.00;;;;;;;-4.20;70.14;98149.27;106893;1254;1003059;-36
2023/11/28 03:25:09;;;;;;;12.70;8.90;;;;;;;-4.19;70.21;98146.86;107593;1255;67865;-37
2023/11/28 03:27:37;;;;;;;13.00;8.60;;;;;;;-4.16;70.13;98147.23;106666;1257;1003394;-35
2023/11/28 03:30:06;;;;;;;12.10;8.10;;;;;;;-4.14;70.01;98150.52;107537;1255;60375;-36
2023/11/28 03:32:33;;;;;;;15.20;7.90;;;;;;;-4.09;69.63;98152.66;107637;1254;59500;-37
2023/11/28 03:35:03;;;;;;;13.00;8.20;;;;;;;-3.94;69.47;98150.36;107630;1253;71993;-36
2023/11/28 03:37:30;;;;;;;12.10;7.60;;;;;;;-3.82;69.06;98150.88;107496;1254;67080;-36
2023/11/28 03:39:58;;;;;;;14.00;8.50;;;;;;;-3.77;68.81;98153.05;107497;1253;72670;-36
2023/11/28 03:42:26;;;;;;;13.50;8.40;;;;;;;-3.73;68.60;98154.92;107657;1254;60495;-36
2023/11/28 03:44:53;;;;;;;12.20;8.10;;;;;;;-3.70;68.51;98156.40;107702;1254;59617;-35
2023/11/28 03:47:21;;;;;;;12.60;9.00;;;;;;;-3.67;68.50;98157.45;107653;1254;73855;-36
2023/11/28 03:49:49;;;;;;;11.40;8.60;;;;;;;-3.64;68.27;98156.19;107498;1254;66767;-36
2023/11/28 03:52:16;;;;;;;14.50;9.20;;;;;;;-3.62;68.10;98163.12;107506;1254;73047;-36
2023/11/28 03:54:46;;;;;;;17.70;11.10;;;;;;;-3.60;67.98;98165.57;107586;1256;60489;-36
2023/11/28 03:57:14;;;;;;;16.30;10.10;;;;;;;-3.52;67.72;98175.10;107709;1256;60287;-36
2023/11/28 03:59:42;;;;;;;13.00;9.20;;;;;;;-3.41;67.41;98177.27;107518;1254;73831;-36
2023/11/28 04:02:09;;;;;;;14.60;8.90;;;;;;;-3.37;67.34;98181.83;107542;1254;67883;-36
2023/11/28 04:04:38;;;;;;;13.80;9.20;;;;;;;-3.36;67.30;98185.73;107754;1254;71674;-36
2023/11/28 04:07:06;;;;;;;15.80;9.80;;;;;;;-3.35;67.34;98187.68;107693;1254;60409;-36
2023/11/28 04:09:36;;;;;;;14.50;9.70;;;;;;;-3.33;67.53;98193.14;107660;1252;60519;-36
2023/11/28 04:12:05;;;;;;;15.50;9.50;;;;;;;-3.32;67.39;98194.72;107700;1254;72576;-37
2023/11/28 04:14:32;;;;;;;14.40;9.10;;;;;;;-3.31;67.34;98196.51;107579;1255;66578;-36
2023/11/28 04:17:00;;;;;;;14.90;9.90;;;;;;;-3.32;67.15;98198.38;106859;1257;1005699;-37
2023/11/28 04:19:29;;;;;;;13.80;9.20;;;;;;;-3.32;67.30;98197.52;107505;1254;60477;-37
2023/11/28 04:21:57;;;;;;;12.10;8.10;;;;;;;-3.27;67.31;98199.08;107690;1253;60325;-37
2023/11/28 04:24:25;;;;;;;12.70;8.80;;;;;;;-3.14;67.13;98200.98;107491;1257;73904;-37
2023/11/28 04:26:52;;;;;;;11.90;8.20;;;;;;;-3.10;67.19;98200.45;107678;1254;67281;-37
2023/11/28 04:29:21;;;;;;;12.90;8.50;;;;;;;-3.08;67.31;98200.03;107681;1254;72632;-37
2023/11/28 04:31:48;;;;;;;11.50;8.50;;;;;;;-3.05;67.59;98202.52;107695;1253;60405;-37
2023/11/28 04:34:17;;;;;;;14.90;9.10;;;;;;;-3.03;67.50;98204.71;107630;1257;60289;-37
2023/11/28 04:36:44;;;;;;;13.80;9.60;;;;;;;-3.04;67.55;98205.41;107580;1254;73882;-37
2023/11/28 04:39:13;;;;;;;12.30;9.60;;;;;;;-3.05;67.74;98206.36;107577;1254;66523;-36
2023/11/28 04:41:41;;;;;;;16.10;10.10;;;;;;;-3.07;67.92;98209.09;107386;1257;72672;-37
2023/11/28 04:44:09;;;;;;;12.60;8.90;;;;;;;-3.00;68.00;98211.64;107530;1254;60379;-37
2023/11/28 04:46:37;;;;;;;13.30;9.20;;;;;;;-2.90;67.83;98213.32;107584;1251;59831;-37
2023/11/28 04:49:05;;;;;;;15.30;9.80;;;;;;;-2.86;67.89;98215.69;107547;1252;73858;-37
2023/11/28 04:51:33;;;;;;;14.40;9.50;;;;;;;-2.86;67.92;98215.73;107594;1254;66316;-37
2023/11/28 04:54:00;;;;;;;14.10;9.70;;;;;;;-2.85;67.97;98218.85;107649;1255;73174;-37
2023/11/28 04:56:28;;;;;;;14.00;9.90;;;;;;;-2.86;68.11;98224.22;107712;1255;60446;-37
2023/11/28 04:58:56;;;;;;;14.30;9.80;;;;;;;-2.85;68.24;98225.13;107649;1257;60502;-37
2023/11/28 05:01:25;;;;;;;16.30;11.10;;;;;;;-2.85;68.53;98235.60;107657;1253;73832;-37
2023/11/28 05:03:53;;;;;;;14.50;9.70;;;;;;;-2.79;68.86;98236.47;107687;1254;66886;-37
2023/11/28 05:06:20;;;;;;;15.40;10.70;;;;;;;-2.66;68.79;98236.39;107650;1254;73261;-37
2023/11/28 05:08:48;;;;;;;16.30;11.30;;;;;;;-2.61;68.83;98231.95;107504;1254;60466;-37
2023/11/28 05:11:16;;;;;;;15.00;10.80;;;;;;;-2.58;68.98;98238.23;107665;1254;60628;-37
2023/11/28 05:13:43;;;;;;;18.20;11.90;;;;;;;-2.57;69.23;98240.79;107699;1252;74328;-36
2023/11/28 05:16:12;;;;;;;16.50;11.00;;;;;;;-2.56;69.49;98243.63;107664;1256;67633;-37
2023/11/28 05:18:40;;;;;;;16.20;11.40;;;;;;;-2.56;69.78;98250.96;107663;1253;71372;-37
2023/11/28 05:21:08;;;;;;;17.80;12.30;;;;;;;-2.59;69.99;98251.23;107476;1254;60389;-37
2023/11/28 05:23:40;;;;;;;17.70;11.50;;;;;;;-2.57;70.42;98251.68;107534;1253;60304;-37
2023/11/28 05:26:08;;;;;;;14.90;10.60;;;;;;;-2.49;70.37;98254.52;107700;1252;74303;-36
2023/11/28 05:28:36;;;;;;;16.10;11.40;;;;;;;-2.44;70.42;98253.33;107593;1259;67932;-36
2023/11/28 05:31:04;;;;;;;15.40;10.40;;;;;;;-2.43;70.57;98259.21;107509;1254;72733;-37
2023/11/28 05:33:31;;;;;;;17.40;11.60;;;;;;;-2.46;70.80;98257.30;107508;1253;60325;-36
2023/11/28 05:35:59;;;;;;;18.70;12.30;;;;;;;-2.43;70.77;98260.91;107391;1253;60358;-36
2023/11/28 05:38:27;;;;;;;19.80;13.40;;;;;;;-2.44;71.03;98272.27;107543;1254;73785;-36
2023/11/28 05:40:55;;;;;;;16.70;11.40;;;;;;;-2.46;71.04;98270.50;107565;1254;66270;-36
2023/11/28 05:43:23;;;;;;;16.50;11.20;;;;;;;-2.39;71.06;98272.44;107549;1253;72644;-36
2023/11/28 05:45:50;;;;;;;16.70;10.80;;;;;;;-2.33;70.86;98272.59;107388;1254;60461;-37
2023/11/28 05:48:18;;;;;;;18.80;12.00;;;;;;;-2.32;70.97;98271.10;107605;1254;59667;-37
2023/11/28 05:50:46;;;;;;;15.50;11.80;;;;;;;-2.33;71.20;98268.98;107415;1252;72256;-36
2023/11/28 05:53:14;;;;;;;19.60;15.10;;;;;;;-2.32;71.18;98270.35;107608;1252;66433;-37
2023/11/28 05:55:42;;;;;;;16.80;11.80;;;;;;;-2.31;71.26;98276.58;107665;1253;71566;-37
2023/11/28 05:58:10;;;;;;;18.60;12.30;;;;;;;-2.33;71.17;98277.96;107770;1253;60472;-37
2023/11/28 06:00:37;;;;;;;21.60;14.30;;;;;;;-2.35;71.26;98272.95;107448;1251;298130;-37
2023/11/28 06:05:25;;;;;;;19.30;13.20;;;;;;;-2.18;71.14;98278.58;104242;1292;601125;-36
2023/11/28 06:07:53;;;;;;;19.40;13.50;;;;;;;-2.14;71.08;98284.52;106734;1264;59248;-37
2023/11/28 06:10:21;;;;;;;21.10;13.00;;;;;;;-2.10;71.21;98289.27;106661;1266;59203;-37
2023/11/28 06:12:49;;;;;;;23.60;16.20;;;;;;;-2.07;71.23;98287.54;106744;1267;70948;-37
2023/11/28 06:15:17;;;;;;;23.30;16.20;;;;;;;-2.05;71.11;98291.75;106638;1266;67891;-37
2023/11/28 06:17:44;;;;;;;22.50;16.10;;;;;;;-2.06;71.04;98295.86;106719;1266;71482;-37
2023/11/28 06:20:14;;;;;;;19.20;13.60;;;;;;;-2.07;71.16;98296.73;106601;1263;187937;-37
2023/11/28 06:22:45;;;;;;;15.50;11.20;;;;;;;-2.00;70.97;98295.81;106883;1263;59251;-37
2023/11/28 06:25:13;;;;;;;15.30;11.30;;;;;;;-1.93;70.54;98295.38;107068;1259;70742;-37
2023/11/28 06:27:41;;;;;;;16.80;10.80;;;;;;;-1.97;69.15;98294.77;106960;1260;67589;-37
2023/11/28 06:30:09;;;;;;;17.70;11.40;;;;;;;-2.07;68.51;98297.21;107013;1260;72780;-37
2023/11/28 06:32:37;;;;;;;16.40;10.30;;;;;;;-2.18;68.30;98301.92;106979;1260;59507;-37
2023/11/28 06:35:08;;;;;;;13.30;9.10;;;;;;;-2.27;68.24;98295.06;106982;1259;60088;-37
2023/11/28 06:37:35;;;;;;;15.60;10.40;;;;;;;-2.35;68.26;98291.61;106108;1259;1003291;-37
2023/11/28 06:40:04;;;;;;;17.90;10.70;;;;;;;-2.43;68.47;98291.35;106956;1260;67889;-37
2023/11/28 06:42:31;;;;;;;18.30;11.90;;;;;;;-2.47;68.53;98290.81;107095;1260;71456;-37
2023/11/28 06:45:02;;;;;;;17.80;11.20;;;;;;;-2.44;68.60;98290.89;107068;1259;60899;-37
2023/11/28 06:47:29;;;;;;;19.20;12.10;;;;;;;-2.43;68.51;98293.39;107051;1259;60052;-37
2023/11/28 06:49:57;;;;;;;16.40;10.80;;;;;;;-2.47;68.60;98294.27;107099;1259;73096;-37
2023/11/28 06:52:25;;;;;;;19.80;10.80;;;;;;;-2.51;68.70;98292.49;107066;1260;67611;-37
2023/11/28 06:54:52;;;;;;;17.60;11.70;;;;;;;-2.55;68.78;98298.05;106264;1259;1003494;-36
2023/11/28 06:57:20;;;;;;;17.70;10.90;;;;;;;-2.57;68.69;98299.86;106293;1259;1015710;-36
2023/11/28 06:59:48;;;;;;;20.90;12.20;;;;;;;-2.60;68.63;98294.35;107047;1259;59542;-37
2023/11/28 07:02:16;;;;;;;17.40;10.80;;;;;;;-2.66;68.81;98297.40;107031;1260;71790;-36
2023/11/28 07:04:44;;;;;;;20.20;12.20;;;;;;;-2.62;68.74;98296.68;106883;1259;66635;-36
2023/11/28 07:07:12;;;;;;;49.90;27.90;;;;;;;-2.54;68.34;98300.31;107263;1256;72710;-37
2023/11/28 07:09:47;;;;;;;49.60;27.20;;;;;;;-2.54;68.28;98296.07;107252;1260;59518;-37
2023/11/28 07:12:14;;;;;;;22.20;11.50;;;;;;;-2.56;68.15;98299.98;107247;1256;60117;-37
2023/11/28 07:14:42;;;;;;;15.90;11.00;;;;;;;-2.58;68.01;98298.97;107248;1255;73081;-37
2023/11/28 07:17:10;;;;;;;17.20;10.90;;;;;;;-2.61;68.17;98296.89;107382;1255;67561;-36
2023/11/28 07:19:37;;;;;;;27.30;15.90;;;;;;;-2.64;68.18;98304.35;107243;1256;71851;-36
2023/11/28 07:22:06;;;;;;;19.30;12.30;;;;;;;-2.65;68.12;98310.58;107249;1256;59473;-37
2023/11/28 07:24:34;;;;;;;35.20;17.90;;;;;;;-2.64;68.32;98309.09;107161;1256;60005;-36
2023/11/28 07:27:01;;;;;;;27.20;16.40;;;;;;;-2.62;68.47;98309.20;107159;1256;73882;-37
2023/11/28 07:29:29;;;;;;;44.90;22.90;;;;;;;-2.56;68.56;98308.97;107241;1256;66296;-38
2023/11/28 07:31:57;;;;;;;72.50;31.80;;;;;;;-2.43;68.41;98305.36;107394;1256;72742;-37
2023/11/28 07:34:25;;;;;;;28.70;15.70;;;;;;;-2.23;68.27;98308.73;107245;1255;59624;-37
2023/11/28 07:36:52;;;;;;;39.40;20.30;;;;;;;-2.11;67.92;98306.83;107289;1256;60222;-36
2023/11/28 07:39:20;;;;;;;55.30;26.20;;;;;;;-2.02;67.54;98304.89;107192;1256;73060;-36
2023/11/28 07:41:48;;;;;;;67.60;32.00;;;;;;;-1.93;66.99;98305.56;107288;1255;66933;-36
2023/11/28 07:44:16;;;;;;;30.50;17.60;;;;;;;-1.87;66.64;98302.98;107261;1256;72669;-36
2023/11/28 07:46:44;;;;;;;58.80;30.50;;;;;;;-1.82;66.13;98307.57;107147;1256;59689;-36
2023/11/28 07:49:12;;;;;;;24.90;14.60;;;;;;;-1.78;66.14;98306.20;107163;1255;59529;-36
2023/11/28 07:51:39;;;;;;;18.80;12.50;;;;;;;-1.72;65.91;98309.52;107184;1255;73053;-36
2023/11/28 07:54:07;;;;;;;49.10;23.30;;;;;;;-1.69;65.50;98308.84;107254;1256;66652;-36
2023/11/28 07:56:34;;;;;;;40.10;20.50;;;;;;;-1.62;65.41;98317.06;107250;1256;72757;-36
2023/11/28 07:59:02;;;;;;;22.40;13.40;;;;;;;-1.53;65.19;98310.92;107422;1256;59657;-37
2023/11/28 08:01:30;;;;;;;18.70;11.50;;;;;;;-1.42;64.75;98306.12;107267;1256;59598;-36
2023/11/28 08:03:58;;;;;;;21.30;12.30;;;;;;;-1.31;64.62;98307.20;107234;1256;73048;-38
2023/11/28 08:06:25;;;;;;;36.80;19.40;;;;;;;-1.17;64.02;98300.30;107251;1255;67715;-37
2023/11/28 08:08:53;;;;;;;16.80;11.20;;;;;;;-0.97;63.57;98293.69;107423;1256;72690;-37
2023/11/28 08:11:20;;;;;;;51.90;23.10;;;;;;;-0.80;63.00;98293.29;107395;1259;59583;-37
2023/11/28 08:13:48;;;;;;;19.70;12.40;;;;;;;-0.74;62.26;98297.84;107392;1256;60087;-37
2023/11/28 08:16:18;;;;;;;24.80;14.10;;;;;;;-0.69;61.90;98307.49;107399;1256;73022;-37
2023/11/28 08:18:47;;;;;;;19.50;12.20;;;;;;;-0.63;61.77;98307.02;107139;1257;67776;-37
2023/11/28 08:21:14;;;;;;;41.40;20.70;;;;;;;-0.54;61.39;98312.37;107282;1259;72756;-37
2023/11/28 08:23:43;;;;;;;17.70;11.60;;;;;;;-0.48;60.78;98310.57;107147;1256;59535;-37
2023/11/28 08:26:11;;;;;;;20.70;11.90;;;;;;;-0.40;61.01;98307.30;107286;1256;60119;-37
2023/11/28 08:28:39;;;;;;;19.70;12.40;;;;;;;-0.27;60.47;98299.27;107312;1256;72045;-37
2023/11/28 08:31:08;;;;;;;43.40;21.80;;;;;;;-0.16;60.28;98299.58;106530;1256;1003677;-37
2023/11/28 08:33:36;;;;;;;23.60;14.70;;;;;;;-0.07;59.86;98301.07;107350;1256;71406;-37
2023/11/28 08:36:05;;;;;;;22.00;13.60;;;;;;;0.00;59.44;98297.41;107194;1257;59503;-37
2023/11/28 08:38:33;;;;;;;20.30;14.50;;;;;;;0.06;58.79;98295.82;107316;1256;59475;-37
2023/11/28 08:41:03;;;;;;;15.50;10.50;;;;;;;0.14;58.93;98293.05;107382;1258;73063;-37
2023/11/28 08:43:31;;;;;;;16.50;10.60;;;;;;;0.25;59.03;98287.73;107240;1255;67692;-37
2023/11/28 08:45:59;;;;;;;15.60;10.30;;;;;;;0.38;58.16;98290.64;107284;1256;70814;-37
2023/11/28 08:48:27;;;;;;;16.00;10.30;;;;;;;0.50;57.93;98293.55;107263;1256;59498;-37
2023/11/28 08:50:54;;;;;;;15.30;10.30;;;;;;;0.63;57.76;98289.48;107261;1256;60071;-37
2023/11/28 08:53:22;;;;;;;17.30;10.30;;;;;;;0.74;57.36;98291.30;107252;1256;73521;-37
2023/11/28 08:55:50;;;;;;;12.60;9.50;;;;;;;0.82;56.75;98287.67;107259;1256;67956;-37
2023/11/28 08:58:17;;;;;;;13.80;9.50;;;;;;;0.87;56.24;98286.48;107252;1257;72492;-37
2023/11/28 09:00:45;;;;;;;14.20;9.60;;;;;;;0.92;56.22;98283.86;107265;1256;59685;-37
2023/11/28 09:03:13;;;;;;;11.20;8.20;;;;;;;0.99;55.91;98287.88;107148;1256;60047;-37
2023/11/28 09:05:41;;;;;;;13.50;8.30;;;;;;;1.05;55.59;98276.23;107218;1256;73035;-37
2023/11/28 09:08:08;;;;;;;12.50;8.20;;;;;;;1.12;55.38;98280.36;107212;1260;67710;-37
2023/11/28 09:10:36;;;;;;;12.30;8.80;;;;;;;1.18;55.49;98280.00;107241;1256;72408;-37
2023/11/28 09:13:04;;;;;;;11.20;7.40;;;;;;;1.29;55.11;98283.16;107249;1256;59617;-37
2023/11/28 09:15:32;;;;;;;10.40;7.40;;;;;;;1.46;54.95;98281.95;107223;1255;60019;-37
2023/11/28 09:18:00;;;;;;;11.10;7.70;;;;;;;1.64;54.18;98277.45;107189;1256;71145;-37
2023/11/28 09:20:27;;;;;;;10.10;7.20;;;;;;;1.77;53.58;98270.52;107193;1256;66749;-37
2023/11/28 09:22:55;;;;;;;9.60;6.40;;;;;;;1.87;52.57;98269.69;107161;1256;72675;-37
2023/11/28 09:25:23;;;;;;;9.30;6.10;;;;;;;1.92;51.55;98269.05;107177;1260;59528;-37
2023/11/28 09:27:51;;;;;;;9.30;5.80;;;;;;;1.95;51.51;98269.21;106508;1260;1003071;-37
2023/11/28 09:30:19;;;;;;;9.60;5.90;;;;;;;1.99;51.10;98265.24;107283;1257;71911;-37
2023/11/28 09:32:46;;;;;;;8.90;5.80;;;;;;;2.07;50.74;98259.51;107266;1256;67757;-37
2023/11/28 09:35:14;;;;;;;8.30;6.00;;;;;;;2.19;50.24;98254.16;107297;1256;73221;-37
2023/11/28 09:37:42;;;;;;;8.70;5.70;;;;;;;2.30;50.38;98254.39;107237;1256;59587;-37
2023/11/28 09:40:10;;;;;;;8.10;5.80;;;;;;;2.40;49.41;98254.47;107231;1256;60005;-37
2023/11/28 09:42:38;;;;;;;7.10;5.30;;;;;;;2.45;48.89;98252.56;107267;1256;72201;-37
2023/11/28 09:45:07;;;;;;;7.50;4.90;;;;;;;2.49;48.62;98253.16;107079;1255;67890;-37
2023/11/28 09:47:36;;;;;;;5.60;3.90;;;;;;;2.56;47.94;98244.70;107323;1256;71951;-37
2023/11/28 09:50:05;;;;;;;8.10;5.30;;;;;;;2.71;48.22;98237.35;107302;1256;59542;-37
2023/11/28 09:52:33;;;;;;;6.90;4.60;;;;;;;2.94;48.28;98235.09;107199;1255;60064;-38
2023/11/28 09:55:01;;;;;;;7.00;5.40;;;;;;;3.15;47.99;98232.21;107306;1255;73071;-37
2023/11/28 09:57:32;;;;;;;7.00;4.70;;;;;;;3.31;46.89;98228.30;107176;1257;67689;-37
2023/11/28 09:59:59;;;;;;;9.10;5.80;;;;;;;3.38;46.72;98220.88;107195;1256;71370;-37
2023/11/28 10:02:27;;;;;;;9.50;5.60;;;;;;;3.46;46.64;98219.72;107110;1256;59641;-37
2023/11/28 10:04:55;;;;;;;10.10;6.10;;;;;;;3.56;46.55;98212.78;107225;1255;59516;-38
2023/11/28 10:07:26;;;;;;;8.20;5.40;;;;;;;3.59;45.64;98208.98;107274;1256;72260;-38
2023/11/28 10:09:54;;;;;;;12.00;7.30;;;;;;;3.60;45.18;98210.39;107323;1256;68009;-37
2023/11/28 10:12:22;;;;;;;7.80;5.40;;;;;;;3.63;45.66;98208.48;107053;1256;71511;-38
2023/11/28 10:14:50;;;;;;;11.30;5.80;;;;;;;3.73;45.93;98203.77;107214;1256;61680;-37
2023/11/28 10:17:17;;;;;;;38.30;17.70;;;;;;;3.88;45.74;98199.88;107194;1257;62174;-37
2023/11/28 10:19:46;;;;;;;9.20;6.00;;;;;;;4.08;45.48;98195.65;107273;1256;73789;-37
2023/11/28 10:22:14;;;;;;;9.10;6.20;;;;;;;4.26;44.39;98196.17;107231;1256;68066;-38
2023/11/28 10:24:41;;;;;;;8.70;6.10;;;;;;;4.39;43.79;98193.66;107254;1256;71374;-37
2023/11/28 10:27:11;;;;;;;17.70;9.80;;;;;;;4.50;43.20;98190.25;107230;1256;60384;-38
2023/11/28 10:29:39;;;;;;;12.00;7.00;;;;;;;4.58;42.52;98189.76;107255;1255;60173;-38
2023/11/28 10:32:07;;;;;;;12.60;8.10;;;;;;;4.66;42.11;98189.17;107179;1256;75678;-38
2023/11/28 10:34:36;;;;;;;8.70;5.80;;;;;;;4.76;42.08;98187.77;107253;1261;67669;-37
2023/11/28 10:37:04;;;;;;;9.50;5.50;;;;;;;4.88;41.91;98185.77;107116;1257;72719;-38
2023/11/28 10:39:33;;;;;;;20.00;11.80;;;;;;;5.02;41.58;98187.05;107262;1261;60431;-38
2023/11/28 10:42:03;;;;;;;8.50;5.40;;;;;;;5.10;40.90;98189.29;107235;1256;60496;-38
2023/11/28 10:44:31;;;;;;;24.70;13.80;;;;;;;5.08;40.74;98186.58;107236;1256;72988;-38
2023/11/28 10:46:59;;;;;;;8.70;4.90;;;;;;;5.07;41.09;98185.48;107260;1256;67739;-38
2023/11/28 10:49:27;;;;;;;7.10;4.20;;;;;;;5.11;41.09;98182.73;107257;1257;71453;-37
2023/11/28 10:51:56;;;;;;;9.80;4.50;;;;;;;5.18;40.81;98191.17;107263;1256;60813;-37
2023/11/28 10:54:24;;;;;;;6.20;4.20;;;;;;;5.29;40.22;98191.45;107123;1256;60369;-37
2023/11/28 10:56:52;;;;;;;27.90;12.40;;;;;;;5.38;40.37;98197.79;107178;1256;73907;-38
2023/11/28 10:59:37;;;;;;;8.60;5.50;;;;;;;5.54;40.59;98196.36;107158;1260;67577;-38
2023/11/28 11:02:06;;;;;;;8.70;5.50;;;;;;;5.80;39.73;98196.61;107215;1255;72519;-38
2023/11/28 11:04:34;;;;;;;63.10;29.70;;;;;;;5.95;38.88;98189.23;107272;1257;60382;-37
2023/11/28 11:07:02;;;;;;;37.40;19.60;;;;;;;6.03;39.01;98189.61;107315;1256;60425;-38
2023/11/28 11:09:30;;;;;;;62.50;34.70;;;;;;;6.18;39.01;98190.34;107122;1256;73858;-38
2023/11/28 11:11:58;;;;;;;9.40;6.20;;;;;;;6.28;38.43;98193.59;107113;1255;66750;-38
2023/11/28 11:14:53;;;;;;;9.60;5.70;;;;;;;6.26;37.87;98183.64;107161;1256;72671;-38
2023/11/28 11:17:39;;;;;;;8.70;6.20;;;;;;;6.08;37.96;98182.09;107137;1256;59746;-38
2023/11/28 11:20:08;;;;;;;8.30;5.60;;;;;;;5.90;38.58;98185.77;107267;1256;60153;-37
2023/11/28 11:22:36;;;;;;;;;;;;;;;5.85;38.74;98185.65;107225;1256;73900;-37